Time,TemperatureF,DewpointF,PressureIn,WindDirection,WindDirectionDegrees,WindSpeedMPH,WindSpeedGustMPH,Humidity,HourlyPrecipIn,Conditions,Clouds,dailyrainin,SoftwareType,DateUTC
2013-08-19 00:00:00,62.2,57.0,30.02,SW,218,0.0,3.0,84,0.00,,,0.00,weatherlink.com 1.10,2013-08-19 05:00:00,
2013-08-19 00:15:00,61.9,57.0,30.02,East,99,0.0,4.0,85,0.00,,,0.00,weatherlink.com 1.10,2013-08-19 05:15:00,
2013-08-19 00:30:00,61.9,57.0,30.02,SSW,203,1.0,2.0,85,0.00,,,0.00,weatherlink.com 1.10,2013-08-19 05:30:00,
2013-08-19 00:45:00,61.7,57.0,30.03,SSW,205,0.0,4.0,85,0.00,,,0.00,weatherlink.com 1.10,2013-08-19 05:45:00,
2013-08-19 01:01:00,61.2,57.0,30.03,SSW,207,0.0,3.0,86,0.00,,,0.00,weatherlink.com 1.10,2013-08-19 06:01:00,
2013-08-19 01:16:00,60.8,57.0,30.03,West,262,0.0,3.0,88,0.00,,,0.00,weatherlink.com 1.10,2013-08-19 06:16:00,
2013-08-19 01:31:00,60.7,57.0,30.03,WSW,245,0.0,4.0,88,0.00,,,0.00,weatherlink.com 1.10,2013-08-19 06:31:00,
2013-08-19 01:46:00,60.7,57.0,30.02,SSW,195,0.0,5.0,88,0.00,,,0.00,weatherlink.com 1.10,2013-08-19 06:46:00,
2013-08-19 02:01:00,60.8,57.0,30.02,SW,216,0.0,3.0,88,0.00,,,0.00,weatherlink.com 1.10,2013-08-19 07:01:00,
2013-08-19 02:16:00,60.5,57.0,30.03,SW,219,0.0,2.0,89,0.00,,,0.00,weatherlink.com 1.10,2013-08-19 07:16:00,
2013-08-19 02:31:00,60.2,57.0,30.02,SW,234,1.0,3.0,89,0.00,,,0.00,weatherlink.com 1.10,2013-08-19 07:31:00,
2013-08-19 02:46:00,60.0,57.0,30.02,SW,231,1.0,2.0,90,0.00,,,0.00,weatherlink.com 1.10,2013-08-19 07:46:00,
2013-08-19 03:01:00,59.9,57.0,30.02,SSW,210,1.0,2.0,90,0.00,,,0.00,weatherlink.com 1.10,2013-08-19 08:01:00,
2013-08-19 03:16:00,59.7,57.0,30.02,SW,215,0.0,0.0,90,0.00,,,0.00,weatherlink.com 1.10,2013-08-19 08:16:00,
2013-08-19 03:31:00,59.4,57.0,30.02,SSW,208,0.0,0.0,90,0.00,,,0.00,weatherlink.com 1.10,2013-08-19 08:31:00,
2013-08-19 03:46:00,59.2,57.0,30.01,SSE,160,0.0,0.0,91,0.00,,,0.00,weatherlink.com 1.10,2013-08-19 08:46:00,
2013-08-19 04:01:00,59.1,57.0,30.01,South,174,0.0,0.0,91,0.00,,,0.00,weatherlink.com 1.10,2013-08-19 09:01:00,
2013-08-19 04:16:00,59.0,56.0,30.01,South,176,0.0,0.0,91,0.00,,,0.00,weatherlink.com 1.10,2013-08-19 09:16:00,
2013-08-19 04:31:00,59.0,56.0,30.01,SSW,210,0.0,2.0,91,0.00,,,0.00,weatherlink.com 1.10,2013-08-19 09:31:00,
2013-08-19 04:46:00,58.9,56.0,30.00,SSW,201,0.0,2.0,91,0.00,,,0.00,weatherlink.com 1.10,2013-08-19 09:46:00,
2013-08-19 05:01:00,58.8,56.0,30.00,SSW,203,0.0,0.0,91,0.00,,,0.00,weatherlink.com 1.10,2013-08-19 10:01:00,
2013-08-19 05:16:00,59.0,56.0,30.00,SSW,213,0.0,2.0,91,0.00,,,0.00,weatherlink.com 1.10,2013-08-19 10:16:00,
2013-08-19 05:31:00,59.5,57.0,30.00,SSW,198,1.0,5.0,91,0.00,,,0.00,weatherlink.com 1.10,2013-08-19 10:31:00,
2013-08-19 05:46:00,60.1,57.0,30.00,SW,215,0.0,4.0,90,0.00,,,0.00,weatherlink.com 1.10,2013-08-19 10:46:00,
2013-08-19 06:01:00,60.4,58.0,30.00,NNW,335,0.0,4.0,90,0.00,,,0.00,weatherlink.com 1.10,2013-08-19 11:01:00,
2013-08-19 06:16:00,61.0,58.0,29.99,South,184,0.0,4.0,89,0.00,,,0.00,weatherlink.com 1.10,2013-08-19 11:16:00,
2013-08-19 06:31:00,61.7,58.0,29.99,SSE,150,1.0,6.0,88,0.00,,,0.00,weatherlink.com 1.10,2013-08-19 11:31:00,
2013-08-19 06:46:00,62.1,58.0,29.99,ENE,75,1.0,7.0,87,0.00,,,0.00,weatherlink.com 1.10,2013-08-19 11:46:00,
2013-08-19 07:01:00,62.1,58.0,30.00,SW,236,0.0,6.0,87,0.00,,,0.00,weatherlink.com 1.10,2013-08-19 12:01:00,
2013-08-19 07:16:00,62.1,59.0,30.00,SW,223,1.0,3.0,88,0.00,,,0.00,weatherlink.com 1.10,2013-08-19 12:16:00,
2013-08-19 07:31:00,62.1,59.0,30.00,West,259,0.0,2.0,88,0.00,,,0.00,weatherlink.com 1.10,2013-08-19 12:31:00,
2013-08-19 07:46:00,62.3,59.0,30.00,SE,128,0.0,2.0,89,0.00,,,0.00,weatherlink.com 1.10,2013-08-19 12:46:00,
2013-08-19 08:01:00,62.5,59.0,30.00,East,96,0.0,3.0,89,0.00,,,0.00,weatherlink.com 1.10,2013-08-19 13:01:00,
2013-08-19 08:16:00,63.2,60.0,30.00,SSW,212,3.0,4.0,88,0.00,,,0.00,weatherlink.com 1.10,2013-08-19 13:16:00,
2013-08-19 08:31:00,63.6,60.0,30.00,WSW,252,0.0,4.0,88,0.00,,,0.00,weatherlink.com 1.10,2013-08-19 13:31:00,
2013-08-19 08:46:00,64.4,61.0,30.00,SW,217,0.0,4.0,87,0.00,,,0.00,weatherlink.com 1.10,2013-08-19 13:46:00,
2013-08-19 09:01:00,65.0,61.0,30.00,SW,220,0.0,7.0,86,0.00,,,0.00,weatherlink.com 1.10,2013-08-19 14:01:00,
2013-08-19 09:16:00,65.7,62.0,30.00,SW,221,6.0,6.0,86,0.00,,,0.00,weatherlink.com 1.10,2013-08-19 14:16:00,
2013-08-19 09:31:00,67.5,63.0,30.00,WSW,245,3.0,6.0,84,0.00,,,0.00,weatherlink.com 1.10,2013-08-19 14:31:00,
2013-08-19 09:46:00,68.6,63.0,30.00,SW,236,4.0,6.0,82,0.00,,,0.00,weatherlink.com 1.10,2013-08-19 14:46:00,
2013-08-19 10:01:00,70.1,64.0,29.99,WSW,241,1.0,12.0,80,0.00,,,0.00,weatherlink.com 1.10,2013-08-19 15:01:00,
2013-08-19 10:17:00,71.5,64.0,29.99,SSW,210,2.0,8.0,77,0.00,,,0.00,weatherlink.com 1.10,2013-08-19 15:17:00,
2013-08-19 10:32:00,72.9,65.0,29.98,SSE,166,2.0,7.0,75,0.00,,,0.00,weatherlink.com 1.10,2013-08-19 15:32:00,
2013-08-19 10:47:00,73.5,65.0,29.98,WSW,239,3.0,12.0,74,0.00,,,0.00,weatherlink.com 1.10,2013-08-19 15:47:00,
2013-08-19 11:02:00,74.2,65.0,29.98,South,191,1.0,11.0,74,0.00,,,0.00,weatherlink.com 1.10,2013-08-19 16:02:00,
2013-08-19 11:17:00,75.4,66.0,29.98,SE,124,4.0,9.0,72,0.00,,,0.00,weatherlink.com 1.10,2013-08-19 16:17:00,
2013-08-19 11:32:00,76.0,66.0,29.97,SSW,205,4.0,12.0,70,0.00,,,0.00,weatherlink.com 1.10,2013-08-19 16:32:00,
2013-08-19 12:02:00,77.9,67.0,29.97,SW,235,5.0,12.0,69,0.00,,,0.00,weatherlink.com 1.10,2013-08-19 17:02:00,
2013-08-19 12:17:00,78.8,67.0,29.97,South,185,6.0,14.0,67,0.00,,,0.00,weatherlink.com 1.10,2013-08-19 17:17:00,
2013-08-19 12:32:00,79.5,67.0,29.97,WNW,286,3.0,11.0,66,0.00,,,0.00,weatherlink.com 1.10,2013-08-19 17:32:00,
2013-08-19 12:47:00,80.4,68.0,29.96,East,91,2.0,9.0,65,0.00,,,0.00,weatherlink.com 1.10,2013-08-19 17:47:00,
2013-08-19 13:02:00,80.6,68.0,29.96,SW,228,6.0,10.0,66,0.00,,,0.00,weatherlink.com 1.10,2013-08-19 18:02:00,
2013-08-19 13:17:00,80.6,68.0,29.95,North,349,1.0,13.0,65,0.00,,,0.00,weatherlink.com 1.10,2013-08-19 18:17:00,
2013-08-19 13:32:00,81.3,68.0,29.95,SW,231,7.0,9.0,64,0.00,,,0.00,weatherlink.com 1.10,2013-08-19 18:32:00,
2013-08-19 13:47:00,81.5,67.0,29.95,SW,219,3.0,12.0,62,0.00,,,0.00,weatherlink.com 1.10,2013-08-19 18:47:00,
2013-08-19 14:02:00,81.9,68.0,29.95,SSW,194,1.0,10.0,62,0.00,,,0.00,weatherlink.com 1.10,2013-08-19 19:02:00,
2013-08-19 14:17:00,81.8,68.0,29.95,SW,226,3.0,11.0,63,0.00,,,0.00,weatherlink.com 1.10,2013-08-19 19:17:00,
2013-08-19 14:32:00,82.2,68.0,29.95,SW,236,5.0,12.0,63,0.00,,,0.00,weatherlink.com 1.10,2013-08-19 19:32:00,
2013-08-19 14:47:00,82.3,67.0,29.94,East,89,3.0,10.0,61,0.00,,,0.00,weatherlink.com 1.10,2013-08-19 19:47:00,
2013-08-19 15:02:00,82.8,68.0,29.94,WSW,246,3.0,10.0,61,0.00,,,0.00,weatherlink.com 1.10,2013-08-19 20:02:00,
2013-08-19 15:17:00,83.3,68.0,29.94,SW,236,8.0,10.0,61,0.00,,,0.00,weatherlink.com 1.10,2013-08-19 20:17:00,
2013-08-19 15:32:00,83.0,68.0,29.93,SW,224,4.0,9.0,61,0.00,,,0.00,weatherlink.com 1.10,2013-08-19 20:32:00,
2013-08-19 15:47:00,82.6,68.0,29.93,NNE,30,2.0,13.0,61,0.00,,,0.00,weatherlink.com 1.10,2013-08-19 20:47:00,
2013-08-19 16:02:00,82.7,68.0,29.93,SSW,199,1.0,13.0,62,0.00,,,0.00,weatherlink.com 1.10,2013-08-19 21:02:00,
2013-08-19 16:17:00,82.0,68.0,29.93,South,172,1.0,9.0,63,0.00,,,0.00,weatherlink.com 1.10,2013-08-19 21:17:00,
2013-08-19 16:32:00,82.4,67.0,29.93,NW,318,1.0,9.0,60,0.00,,,0.00,weatherlink.com 1.10,2013-08-19 21:32:00,
2013-08-19 16:47:00,82.6,68.0,29.92,WSW,244,2.0,9.0,61,0.00,,,0.00,weatherlink.com 1.10,2013-08-19 21:47:00,
2013-08-19 17:02:00,82.2,68.0,29.92,South,169,3.0,12.0,62,0.00,,,0.00,weatherlink.com 1.10,2013-08-19 22:02:00,
2013-08-19 17:17:00,81.9,67.0,29.92,East,88,3.0,8.0,61,0.00,,,0.00,weatherlink.com 1.10,2013-08-19 22:17:00,
2013-08-19 17:32:00,81.6,67.0,29.92,ESE,107,1.0,9.0,62,0.00,,,0.00,weatherlink.com 1.10,2013-08-19 22:32:00,
2013-08-19 17:47:00,81.3,67.0,29.91,SSE,152,4.0,11.0,63,0.00,,,0.00,weatherlink.com 1.10,2013-08-19 22:47:00,
2013-08-19 18:03:00,82.0,68.0,29.90,SE,146,2.0,8.0,62,0.00,,,0.00,weatherlink.com 1.10,2013-08-19 23:03:00,
2013-08-19 18:18:00,81.3,67.0,29.90,South,172,2.0,11.0,62,0.00,,,0.00,weatherlink.com 1.10,2013-08-19 23:18:00,
2013-08-19 18:33:00,80.7,67.0,29.90,East,82,1.0,8.0,63,0.00,,,0.00,weatherlink.com 1.10,2013-08-19 23:33:00,
2013-08-19 18:48:00,80.3,67.0,29.89,East,91,5.0,5.0,64,0.00,,,0.00,weatherlink.com 1.10,2013-08-19 23:48:00,
2013-08-19 19:03:00,79.6,67.0,29.89,South,186,2.0,7.0,65,0.00,,,0.00,weatherlink.com 1.10,2013-08-20 00:03:00,
2013-08-19 19:18:00,78.9,67.0,29.89,East,94,1.0,6.0,67,0.00,,,0.00,weatherlink.com 1.10,2013-08-20 00:18:00,
2013-08-19 19:33:00,78.2,66.0,29.89,WSW,239,1.0,6.0,67,0.00,,,0.00,weatherlink.com 1.10,2013-08-20 00:33:00,
2013-08-19 19:48:00,77.4,66.0,29.89,East,90,3.0,6.0,68,0.00,,,0.00,weatherlink.com 1.10,2013-08-20 00:48:00,
2013-08-19 20:03:00,76.3,66.0,29.89,East,90,3.0,5.0,71,0.00,,,0.00,weatherlink.com 1.10,2013-08-20 01:03:00,
2013-08-19 20:18:00,75.1,66.0,29.90,East,99,2.0,4.0,74,0.00,,,0.00,weatherlink.com 1.10,2013-08-20 01:18:00,
2013-08-19 20:33:00,74.4,66.0,29.90,ENE,65,1.0,5.0,76,0.00,,,0.00,weatherlink.com 1.10,2013-08-20 01:33:00,
2013-08-19 20:48:00,73.8,66.0,29.90,ESE,103,0.0,5.0,77,0.00,,,0.00,weatherlink.com 1.10,2013-08-20 01:48:00,
2013-08-19 21:03:00,73.1,66.0,29.91,SE,136,3.0,5.0,79,0.00,,,0.00,weatherlink.com 1.10,2013-08-20 02:03:00,
2013-08-19 21:18:00,72.7,66.0,29.91,SSE,160,0.0,5.0,78,0.00,,,0.00,weatherlink.com 1.10,2013-08-20 02:18:00,
2013-08-19 21:33:00,72.5,65.0,29.92,ENE,73,2.0,3.0,78,0.00,,,0.00,weatherlink.com 1.10,2013-08-20 02:33:00,
2013-08-19 21:48:00,72.0,65.0,29.92,ESE,112,1.0,3.0,79,0.00,,,0.00,weatherlink.com 1.10,2013-08-20 02:48:00,
2013-08-19 22:03:00,71.4,65.0,29.92,East,83,0.0,5.0,80,0.00,,,0.00,weatherlink.com 1.10,2013-08-20 03:03:00,
2013-08-19 22:18:00,70.9,65.0,29.92,South,188,0.0,3.0,81,0.00,,,0.00,weatherlink.com 1.10,2013-08-20 03:18:00,
2013-08-19 22:33:00,70.7,65.0,29.92,WSW,257,0.0,3.0,81,0.00,,,0.00,weatherlink.com 1.10,2013-08-20 03:33:00,
2013-08-19 22:48:00,70.7,65.0,29.92,East,83,2.0,4.0,81,0.00,,,0.00,weatherlink.com 1.10,2013-08-20 03:48:00,
2013-08-19 23:03:00,70.9,65.0,29.92,SW,219,0.0,4.0,81,0.00,,,0.00,weatherlink.com 1.10,2013-08-20 04:03:00,
2013-08-19 23:18:00,71.0,65.0,29.92,WNW,289,0.0,5.0,80,0.00,,,0.00,weatherlink.com 1.10,2013-08-20 04:18:00,
2013-08-19 23:33:00,71.3,65.0,29.91,SSE,150,0.0,6.0,80,0.00,,,0.00,weatherlink.com 1.10,2013-08-20 04:33:00,
2013-08-19 23:48:00,71.2,65.0,29.91,SSW,203,2.0,5.0,80,0.00,,,0.00,weatherlink.com 1.10,2013-08-20 04:48:00,